Columbus Airport

About
Name: Columbus Airport
Identifier:  OLU/KOLU
Local Time:  17. Aug 23:39 CDT
Location
Flights per Day
0 flights
Distance: 665km (413mi)
Punctuality
0% (0 flights per day delayed)
Delay Average: 17 minutes
Current Weather
 26 C (Humidity: 78%)
  10kt (18km/h / 11mph) from 170°
  16km (10 mi.)
 
 METAR KOLU 180356Z AUTO 17010KT 10SM CLR 26/22 A2970 RMK AO2 SLP049 T02560217

Current Flights

Departures
Number Departure To Airline
Arrivals
Number Arrival From Airline

Current Delays

Departures
N/A
Arrivals
N/A

Destinations

Top Destinations
Airport Flights
per week
Seats
per week
  Omaha (MIQ) 0 - 0 0
  Morris (MOX) 0 - 0 0
  Omaha (OMA) 0 - 0 0
  Kansas City (OJC) 0 - 0 0
  Garden City (GCK) 0 - 0 0
  Nashville (BNA) 0 - 0 0
  Janesville (JVL) 0 - 0 0
  Greenville (GRE) 0 - 0 0
  New Richmond (RNH) 0 - 0 0
  Lincoln (LNK) 0 - 0 0
  Fayetteville (FYV) 0 - 0 0
  Grand Island (GRI) 0 - 0 0
  Dubuque (DBQ) 0 - 0 0

Airlines & Planes

Top Airlines
Airline Flights
per Day
Seats
per Day
  National Airlines 0 -
Nordwind Airlines 0 -
Silverhawk Aviation 0 -
  Flybe Nordic 0 -
Top Plane Types
Model Flights Seats
Beech B200 Super King Air 0.3/day - 0
Beech E90 King Air 0.1/day - 0
Piper PA-46-350P Malibu Mirage 0.1/day - 0
Cessna C172 0.1/day - 0
Piper PA28R-201T Turbo Arrow IV 0.0/day - 0
Beech G36 Bonanza 0.0/day - 0